CCA4580 ZPPP-ZUCK
Flight info
| Callsign | CCA4580 |
|---|---|
| Flight time | 1h 1m |
| Altitude | 35100 |
| Route | DAD1Z DADOL W144 ZAT W145 IDSID W91 APUKI W3 QJG QJG3J |
| Aircraft | A346/H-SDE2E3FGHIJ3J4J5M1RWXY/LB1D1 |
Departure
| Time | 2026-04-22 12:37 |
|---|---|
| Airport | Kunming Changshui International Airport (ZPPP) |
Arrival
| Time | 2026-04-22 13:39 |
|---|---|
| Airport | Chongqing Jiangbei International Airport (ZUCK) |
| Time | Latitude | Longitude | Altitude | Speed | Heading |
|---|---|---|---|---|---|
| 2026-04-22 12:05 | 25.10929 | 102.93912 | 6918 ft | 0 kts | 36° |
| 2026-04-22 12:19 | 25.10926 | 102.93910 | 6918 ft | 2 kts | 41° |
| 2026-04-22 12:20 | 25.10918 | 102.93895 | 6918 ft | 2 kts | 70° |
| 2026-04-22 12:20 | 25.10911 | 102.93880 | 6918 ft | 2 kts | 59° |
| 2026-04-22 12:20 | 25.10905 | 102.93864 | 6918 ft | 2 kts | 73° |
| 2026-04-22 12:20 | 25.10902 | 102.93848 | 6918 ft | 2 kts | 86° |
| 2026-04-22 12:21 | 25.10902 | 102.93830 | 6918 ft | 2 kts | 98° |
| 2026-04-22 12:21 | 25.10906 | 102.93813 | 6918 ft | 2 kts | 109° |
| 2026-04-22 12:21 | 25.10912 | 102.93798 | 6918 ft | 2 kts | 121° |
| 2026-04-22 12:21 | 25.10917 | 102.93789 | 6918 ft | 0 kts | 128° |
| 2026-04-22 12:22 | 25.10918 | 102.93787 | 6918 ft | 0 kts | 129° |
| 2026-04-22 12:25 | 25.10913 | 102.93793 | 6918 ft | 2 kts | 131° |
| 2026-04-22 12:25 | 25.10897 | 102.93810 | 6918 ft | 4 kts | 137° |
| 2026-04-22 12:25 | 25.10870 | 102.93837 | 6918 ft | 5 kts | 138° |
| 2026-04-22 12:26 | 25.10838 | 102.93874 | 6918 ft | 7 kts | 131° |
| 2026-04-22 12:26 | 25.10802 | 102.93924 | 6918 ft | 9 kts | 128° |
| 2026-04-22 12:26 | 25.10760 | 102.93982 | 6918 ft | 10 kts | 128° |
| 2026-04-22 12:26 | 25.10714 | 102.94047 | 6918 ft | 11 kts | 128° |
| 2026-04-22 12:27 | 25.10665 | 102.94115 | 6918 ft | 12 kts | 128° |
| 2026-04-22 12:27 | 25.10619 | 102.94179 | 6918 ft | 10 kts | 129° |
| 2026-04-22 12:27 | 25.10555 | 102.94199 | 6918 ft | 10 kts | 190° |
| 2026-04-22 12:27 | 25.10488 | 102.94154 | 6918 ft | 11 kts | 218° |
| 2026-04-22 12:28 | 25.10420 | 102.94094 | 6918 ft | 12 kts | 218° |
| 2026-04-22 12:28 | 25.10350 | 102.94033 | 6918 ft | 13 kts | 218° |
| 2026-04-22 12:28 | 25.10278 | 102.93970 | 6918 ft | 13 kts | 218° |
| 2026-04-22 12:28 | 25.10232 | 102.93938 | 6918 ft | 7 kts | 191° |
| 2026-04-22 12:29 | 25.10181 | 102.93954 | 6918 ft | 8 kts | 144° |
| 2026-04-22 12:29 | 25.10137 | 102.94007 | 6918 ft | 10 kts | 130° |
| 2026-04-22 12:29 | 25.10090 | 102.94068 | 6918 ft | 11 kts | 130° |
| 2026-04-22 12:29 | 25.10039 | 102.94133 | 6918 ft | 9 kts | 130° |
| 2026-04-22 12:30 | 25.10044 | 102.94240 | 6918 ft | 9 kts | 47° |
| 2026-04-22 12:30 | 25.10097 | 102.94292 | 6918 ft | 10 kts | 39° |
| 2026-04-22 12:30 | 25.10158 | 102.94347 | 6918 ft | 11 kts | 38° |
| 2026-04-22 12:31 | 25.10224 | 102.94405 | 6918 ft | 12 kts | 38° |
| 2026-04-22 12:31 | 25.10293 | 102.94465 | 6918 ft | 13 kts | 38° |
| 2026-04-22 12:31 | 25.10366 | 102.94529 | 6918 ft | 13 kts | 38° |
| 2026-04-22 12:31 | 25.10440 | 102.94593 | 6918 ft | 13 kts | 38° |
| 2026-04-22 12:32 | 25.10518 | 102.94660 | 6918 ft | 14 kts | 38° |
| 2026-04-22 12:32 | 25.10676 | 102.94797 | 6918 ft | 14 kts | 38° |
| 2026-04-22 12:32 | 25.10756 | 102.94867 | 6918 ft | 14 kts | 38° |
| 2026-04-22 12:33 | 25.10837 | 102.94938 | 6918 ft | 14 kts | 38° |
| 2026-04-22 12:33 | 25.10919 | 102.95010 | 6918 ft | 15 kts | 38° |
| 2026-04-22 12:33 | 25.11001 | 102.95082 | 6918 ft | 15 kts | 38° |
| 2026-04-22 12:33 | 25.11083 | 102.95154 | 6918 ft | 15 kts | 38° |
| 2026-04-22 12:34 | 25.11167 | 102.95226 | 6918 ft | 15 kts | 38° |
| 2026-04-22 12:34 | 25.11251 | 102.95300 | 6918 ft | 15 kts | 38° |
| 2026-04-22 12:34 | 25.11335 | 102.95372 | 6918 ft | 15 kts | 38° |
| 2026-04-22 12:34 | 25.11418 | 102.95443 | 6918 ft | 15 kts | 38° |
| 2026-04-22 12:35 | 25.11502 | 102.95516 | 6918 ft | 15 kts | 39° |
| 2026-04-22 12:35 | 25.11585 | 102.95589 | 6918 ft | 14 kts | 38° |
| 2026-04-22 12:35 | 25.11644 | 102.95641 | 6918 ft | 7 kts | 40° |
| 2026-04-22 12:35 | 25.11655 | 102.95698 | 6918 ft | 9 kts | 120° |
| 2026-04-22 12:36 | 25.11613 | 102.95760 | 6918 ft | 10 kts | 129° |
| 2026-04-22 12:36 | 25.11561 | 102.95790 | 6918 ft | 8 kts | 182° |
| 2026-04-22 12:36 | 25.11490 | 102.95746 | 6918 ft | 28 kts | 217° |
| 2026-04-22 12:36 | 25.11140 | 102.95437 | 6918 ft | 100 kts | 219° |
| 2026-04-22 12:37 | 25.10410 | 102.94799 | 6918 ft | 162 kts | 218° |
| 2026-04-22 12:37 | 25.09401 | 102.93914 | 7041 ft | 201 kts | 220° |
| 2026-04-22 12:37 | 25.08308 | 102.92942 | 7612 ft | 211 kts | 219° |
| 2026-04-22 12:37 | 25.07105 | 102.91902 | 8225 ft | 224 kts | 218° |
| 2026-04-22 12:38 | 25.05882 | 102.90846 | 8991 ft | 231 kts | 218° |
| 2026-04-22 12:38 | 25.04566 | 102.89709 | 9529 ft | 248 kts | 217° |
| 2026-04-22 12:38 | 25.03148 | 102.88483 | 9985 ft | 272 kts | 217° |
| 2026-04-22 12:38 | 25.01651 | 102.87187 | 10836 ft | 279 kts | 217° |
| 2026-04-22 12:39 | 25.00121 | 102.85863 | 11837 ft | 280 kts | 217° |
| 2026-04-22 12:39 | 24.97034 | 102.83187 | 13473 ft | 290 kts | 218° |
| 2026-04-22 12:39 | 24.95451 | 102.81789 | 14253 ft | 292 kts | 223° |
| 2026-04-22 12:40 | 24.94281 | 102.80003 | 14814 ft | 296 kts | 249° |
| 2026-04-22 12:40 | 24.93954 | 102.77772 | 15349 ft | 300 kts | 276° |
| 2026-04-22 12:40 | 24.94562 | 102.75590 | 15911 ft | 303 kts | 300° |
| 2026-04-22 12:40 | 24.95671 | 102.73605 | 16511 ft | 305 kts | 303° |
| 2026-04-22 12:41 | 24.96828 | 102.71643 | 17084 ft | 309 kts | 303° |
| 2026-04-22 12:41 | 24.97988 | 102.69656 | 17652 ft | 313 kts | 302° |
| 2026-04-22 12:41 | 24.99155 | 102.67619 | 18228 ft | 316 kts | 302° |
| 2026-04-22 12:41 | 25.00325 | 102.65549 | 18809 ft | 319 kts | 301° |
| 2026-04-22 12:42 | 25.01495 | 102.63470 | 19392 ft | 322 kts | 301° |
| 2026-04-22 12:42 | 25.02677 | 102.61385 | 19934 ft | 326 kts | 301° |
| 2026-04-22 12:42 | 25.03942 | 102.59217 | 20216 ft | 340 kts | 301° |
| 2026-04-22 12:42 | 25.05247 | 102.56995 | 20470 ft | 354 kts | 301° |
| 2026-04-22 12:43 | 25.06745 | 102.54802 | 20702 ft | 370 kts | 315° |
| 2026-04-22 12:43 | 25.08931 | 102.53182 | 20929 ft | 387 kts | 336° |
| 2026-04-22 12:43 | 25.11562 | 102.52544 | 21195 ft | 401 kts | 358° |
| 2026-04-22 12:43 | 25.14364 | 102.52857 | 21708 ft | 406 kts | 7° |
| 2026-04-22 12:44 | 25.17129 | 102.53328 | 22262 ft | 408 kts | 7° |
| 2026-04-22 12:44 | 25.19947 | 102.53805 | 22771 ft | 412 kts | 7° |
| 2026-04-22 12:44 | 25.22798 | 102.54276 | 23276 ft | 415 kts | 7° |
| 2026-04-22 12:44 | 25.25636 | 102.54736 | 23776 ft | 418 kts | 6° |
| 2026-04-22 12:45 | 25.28504 | 102.55195 | 24275 ft | 421 kts | 6° |
| 2026-04-22 12:45 | 25.31387 | 102.55653 | 24767 ft | 424 kts | 6° |
| 2026-04-22 12:45 | 25.34327 | 102.56119 | 25254 ft | 427 kts | 6° |
| 2026-04-22 12:45 | 25.37246 | 102.56580 | 25723 ft | 429 kts | 6° |
| 2026-04-22 12:46 | 25.40201 | 102.57046 | 26184 ft | 432 kts | 6° |
| 2026-04-22 12:46 | 25.43201 | 102.57520 | 26638 ft | 435 kts | 6° |
| 2026-04-22 12:46 | 25.46177 | 102.57990 | 27077 ft | 437 kts | 6° |
| 2026-04-22 12:46 | 25.49164 | 102.58462 | 27505 ft | 440 kts | 6° |
| 2026-04-22 12:47 | 25.52225 | 102.58946 | 27932 ft | 442 kts | 6° |
| 2026-04-22 12:47 | 25.55248 | 102.59425 | 28342 ft | 445 kts | 5° |
| 2026-04-22 12:47 | 25.58298 | 102.59907 | 28750 ft | 447 kts | 5° |
| 2026-04-22 12:47 | 25.61370 | 102.60395 | 29143 ft | 449 kts | 5° |
| 2026-04-22 12:48 | 25.64466 | 102.60886 | 29586 ft | 450 kts | 5° |
| 2026-04-22 12:48 | 25.67554 | 102.61376 | 30018 ft | 451 kts | 5° |
| 2026-04-22 12:48 | 25.70666 | 102.61884 | 30393 ft | 454 kts | 6° |
| 2026-04-22 12:48 | 25.73732 | 102.62602 | 30734 ft | 458 kts | 12° |
| 2026-04-22 12:49 | 25.76786 | 102.63641 | 31076 ft | 463 kts | 17° |
| 2026-04-22 12:49 | 25.79764 | 102.65002 | 31416 ft | 467 kts | 22° |
| 2026-04-22 12:49 | 25.82648 | 102.66688 | 31749 ft | 471 kts | 28° |
| 2026-04-22 12:49 | 25.85396 | 102.68682 | 32071 ft | 475 kts | 34° |
| 2026-04-22 12:50 | 25.87993 | 102.70950 | 32386 ft | 478 kts | 38° |
| 2026-04-22 12:50 | 25.90523 | 102.73318 | 32718 ft | 480 kts | 38° |
| 2026-04-22 12:50 | 25.93063 | 102.75729 | 33149 ft | 478 kts | 38° |
| 2026-04-22 12:50 | 25.95580 | 102.78117 | 33638 ft | 476 kts | 38° |
| 2026-04-22 12:51 | 25.98094 | 102.80492 | 34033 ft | 475 kts | 38° |
| 2026-04-22 12:51 | 26.00595 | 102.82849 | 34343 ft | 476 kts | 38° |
| 2026-04-22 12:51 | 26.03143 | 102.85246 | 34638 ft | 478 kts | 38° |
| 2026-04-22 12:51 | 26.05674 | 102.87622 | 34937 ft | 479 kts | 38° |
| 2026-04-22 12:52 | 26.08222 | 102.90012 | 35148 ft | 481 kts | 38° |
| 2026-04-22 12:52 | 26.13331 | 102.94806 | 35159 ft | 481 kts | 38° |
| 2026-04-22 12:53 | 26.18419 | 102.99584 | 35160 ft | 481 kts | 38° |
| 2026-04-22 12:53 | 26.23497 | 103.04358 | 35161 ft | 480 kts | 38° |
| 2026-04-22 12:54 | 26.28592 | 103.09154 | 35161 ft | 479 kts | 38° |
| 2026-04-22 12:54 | 26.33655 | 103.13924 | 35161 ft | 479 kts | 38° |
| 2026-04-22 12:55 | 26.38722 | 103.18696 | 35161 ft | 478 kts | 38° |
| 2026-04-22 12:55 | 26.43796 | 103.23483 | 35160 ft | 478 kts | 38° |
| 2026-04-22 12:56 | 26.49009 | 103.28051 | 35160 ft | 476 kts | 32° |
| 2026-04-22 12:56 | 26.54575 | 103.31899 | 35160 ft | 473 kts | 25° |
| 2026-04-22 12:57 | 26.60440 | 103.35214 | 35160 ft | 473 kts | 23° |
| 2026-04-22 12:57 | 26.66333 | 103.38466 | 35160 ft | 474 kts | 23° |
| 2026-04-22 12:58 | 26.72210 | 103.41730 | 35160 ft | 474 kts | 23° |
| 2026-04-22 12:58 | 26.78111 | 103.45031 | 35157 ft | 474 kts | 24° |
| 2026-04-22 12:59 | 26.83968 | 103.48321 | 35157 ft | 473 kts | 24° |
| 2026-04-22 12:59 | 26.89854 | 103.51622 | 35157 ft | 474 kts | 24° |
| 2026-04-22 13:00 | 26.95733 | 103.54921 | 35156 ft | 475 kts | 23° |
| 2026-04-22 13:00 | 27.01614 | 103.58221 | 35156 ft | 477 kts | 23° |
| 2026-04-22 13:01 | 27.07519 | 103.61537 | 35156 ft | 477 kts | 22° |
| 2026-04-22 13:01 | 27.13452 | 103.64867 | 35157 ft | 477 kts | 22° |
| 2026-04-22 13:02 | 27.19392 | 103.68211 | 35156 ft | 477 kts | 23° |
| 2026-04-22 13:02 | 27.25233 | 103.71693 | 35156 ft | 480 kts | 30° |
| 2026-04-22 13:03 | 27.30253 | 103.76627 | 35157 ft | 487 kts | 47° |
| 2026-04-22 13:03 | 27.33875 | 103.83073 | 35157 ft | 492 kts | 65° |
| 2026-04-22 13:04 | 27.35913 | 103.90401 | 35158 ft | 490 kts | 76° |
| 2026-04-22 13:04 | 27.37523 | 103.97799 | 35157 ft | 489 kts | 76° |
| 2026-04-22 13:05 | 27.39166 | 104.05196 | 35157 ft | 488 kts | 75° |
| 2026-04-22 13:05 | 27.41092 | 104.12503 | 35153 ft | 487 kts | 64° |
| 2026-04-22 13:06 | 27.44789 | 104.18852 | 35158 ft | 482 kts | 45° |
| 2026-04-22 13:06 | 27.49407 | 104.24302 | 35157 ft | 483 kts | 43° |
| 2026-04-22 13:07 | 27.54073 | 104.29728 | 35152 ft | 483 kts | 43° |
| 2026-04-22 13:07 | 27.58694 | 104.35182 | 35146 ft | 483 kts | 44° |
| 2026-04-22 13:08 | 27.63311 | 104.40677 | 35141 ft | 483 kts | 44° |
| 2026-04-22 13:08 | 27.67912 | 104.46171 | 35135 ft | 483 kts | 44° |
| 2026-04-22 13:09 | 27.72532 | 104.51698 | 35132 ft | 483 kts | 44° |
| 2026-04-22 13:09 | 27.77131 | 104.57204 | 35131 ft | 483 kts | 44° |
| 2026-04-22 13:10 | 27.81719 | 104.62706 | 35130 ft | 483 kts | 44° |
| 2026-04-22 13:10 | 27.86335 | 104.68247 | 35129 ft | 483 kts | 44° |
| 2026-04-22 13:11 | 27.90944 | 104.73785 | 35130 ft | 483 kts | 44° |
| 2026-04-22 13:11 | 27.95567 | 104.79347 | 34469 ft | 488 kts | 44° |
| 2026-04-22 13:11 | 27.97877 | 104.82127 | 33792 ft | 490 kts | 44° |
| 2026-04-22 13:12 | 28.00209 | 104.84936 | 33156 ft | 491 kts | 44° |
| 2026-04-22 13:12 | 28.02544 | 104.87747 | 32544 ft | 492 kts | 44° |
| 2026-04-22 13:12 | 28.04871 | 104.90553 | 31964 ft | 492 kts | 45° |
| 2026-04-22 13:12 | 28.07200 | 104.93367 | 31374 ft | 492 kts | 45° |
| 2026-04-22 13:13 | 28.09529 | 104.96184 | 30804 ft | 491 kts | 45° |
| 2026-04-22 13:13 | 28.11839 | 104.98981 | 30226 ft | 490 kts | 45° |
| 2026-04-22 13:13 | 28.14169 | 105.01803 | 29632 ft | 489 kts | 45° |
| 2026-04-22 13:13 | 28.16503 | 105.04630 | 29038 ft | 489 kts | 45° |
| 2026-04-22 13:14 | 28.18791 | 105.07406 | 28580 ft | 485 kts | 45° |
| 2026-04-22 13:14 | 28.21079 | 105.10187 | 28182 ft | 479 kts | 45° |
| 2026-04-22 13:14 | 28.23338 | 105.12933 | 27792 ft | 474 kts | 45° |
| 2026-04-22 13:14 | 28.25560 | 105.15631 | 27400 ft | 470 kts | 45° |
| 2026-04-22 13:15 | 28.27780 | 105.18329 | 27009 ft | 465 kts | 45° |
| 2026-04-22 13:15 | 28.29984 | 105.21009 | 26625 ft | 461 kts | 45° |
| 2026-04-22 13:15 | 28.32153 | 105.23648 | 26242 ft | 457 kts | 45° |
| 2026-04-22 13:15 | 28.34308 | 105.26273 | 25852 ft | 453 kts | 45° |
| 2026-04-22 13:16 | 28.36440 | 105.28873 | 25460 ft | 449 kts | 45° |
| 2026-04-22 13:16 | 28.38547 | 105.31442 | 25084 ft | 445 kts | 45° |
| 2026-04-22 13:16 | 28.40645 | 105.34003 | 24710 ft | 442 kts | 45° |
| 2026-04-22 13:16 | 28.42724 | 105.36543 | 24332 ft | 438 kts | 45° |
| 2026-04-22 13:17 | 28.44761 | 105.39031 | 23958 ft | 435 kts | 45° |
| 2026-04-22 13:17 | 28.46823 | 105.41553 | 23566 ft | 432 kts | 45° |
| 2026-04-22 13:17 | 28.48859 | 105.44044 | 23184 ft | 429 kts | 45° |
| 2026-04-22 13:17 | 28.50859 | 105.46493 | 22792 ft | 426 kts | 45° |
| 2026-04-22 13:18 | 28.52876 | 105.48965 | 22391 ft | 424 kts | 45° |
| 2026-04-22 13:18 | 28.54856 | 105.51391 | 22007 ft | 421 kts | 45° |
| 2026-04-22 13:18 | 28.56841 | 105.53826 | 21622 ft | 418 kts | 45° |
| 2026-04-22 13:18 | 28.58821 | 105.56256 | 21238 ft | 415 kts | 46° |
| 2026-04-22 13:19 | 28.60816 | 105.58707 | 20851 ft | 413 kts | 46° |
| 2026-04-22 13:19 | 28.62739 | 105.61070 | 20478 ft | 410 kts | 46° |
| 2026-04-22 13:19 | 28.64657 | 105.63426 | 20105 ft | 407 kts | 46° |
| 2026-04-22 13:19 | 28.66591 | 105.65806 | 19724 ft | 404 kts | 46° |
| 2026-04-22 13:20 | 28.68475 | 105.68124 | 19349 ft | 402 kts | 46° |
| 2026-04-22 13:20 | 28.70383 | 105.70474 | 18971 ft | 399 kts | 46° |
| 2026-04-22 13:20 | 28.72257 | 105.72784 | 18597 ft | 396 kts | 46° |
| 2026-04-22 13:20 | 28.74111 | 105.75069 | 18225 ft | 394 kts | 46° |
| 2026-04-22 13:21 | 28.75958 | 105.77348 | 17854 ft | 391 kts | 46° |
| 2026-04-22 13:21 | 28.77814 | 105.79639 | 17479 ft | 389 kts | 46° |
| 2026-04-22 13:21 | 28.79634 | 105.81885 | 17109 ft | 387 kts | 46° |
| 2026-04-22 13:21 | 28.81439 | 105.84116 | 16738 ft | 384 kts | 46° |
| 2026-04-22 13:22 | 28.83256 | 105.86362 | 16362 ft | 382 kts | 46° |
| 2026-04-22 13:22 | 28.85027 | 105.88553 | 15995 ft | 380 kts | 47° |
| 2026-04-22 13:22 | 28.86815 | 105.90766 | 15621 ft | 378 kts | 47° |
| 2026-04-22 13:22 | 28.88596 | 105.92972 | 15249 ft | 376 kts | 47° |
| 2026-04-22 13:23 | 28.90347 | 105.95142 | 14880 ft | 374 kts | 47° |
| 2026-04-22 13:23 | 28.92106 | 105.97322 | 14507 ft | 372 kts | 47° |
| 2026-04-22 13:23 | 28.93836 | 105.99468 | 14138 ft | 370 kts | 47° |
| 2026-04-22 13:23 | 28.95585 | 106.01639 | 13763 ft | 368 kts | 47° |
| 2026-04-22 13:24 | 28.97296 | 106.03762 | 13396 ft | 365 kts | 47° |
| 2026-04-22 13:24 | 28.99007 | 106.05888 | 13028 ft | 363 kts | 47° |
| 2026-04-22 13:24 | 29.00725 | 106.08022 | 12659 ft | 360 kts | 47° |
| 2026-04-22 13:24 | 29.02404 | 106.10110 | 12298 ft | 358 kts | 47° |
| 2026-04-22 13:25 | 29.04077 | 106.12191 | 11936 ft | 355 kts | 47° |
| 2026-04-22 13:25 | 29.05750 | 106.14276 | 11569 ft | 353 kts | 47° |
| 2026-04-22 13:25 | 29.07389 | 106.16318 | 11204 ft | 351 kts | 47° |
| 2026-04-22 13:25 | 29.09039 | 106.18376 | 10830 ft | 348 kts | 47° |
| 2026-04-22 13:26 | 29.10658 | 106.20396 | 10486 ft | 345 kts | 47° |
| 2026-04-22 13:26 | 29.12270 | 106.22407 | 10223 ft | 337 kts | 47° |
| 2026-04-22 13:26 | 29.13819 | 106.24342 | 10160 ft | 323 kts | 47° |
| 2026-04-22 13:26 | 29.15301 | 106.26193 | 10124 ft | 309 kts | 47° |
| 2026-04-22 13:27 | 29.16717 | 106.27964 | 10086 ft | 294 kts | 47° |
| 2026-04-22 13:27 | 29.18059 | 106.29641 | 10055 ft | 285 kts | 47° |
| 2026-04-22 13:27 | 29.19385 | 106.31302 | 10001 ft | 281 kts | 47° |
| 2026-04-22 13:27 | 29.20712 | 106.32962 | 9676 ft | 282 kts | 47° |
| 2026-04-22 13:28 | 29.21557 | 106.34021 | 9455 ft | 282 kts | 47° |
| 2026-04-22 13:28 | 29.22866 | 106.35661 | 9140 ft | 281 kts | 47° |
| 2026-04-22 13:28 | 29.24182 | 106.37309 | 8838 ft | 279 kts | 47° |
| 2026-04-22 13:28 | 29.25484 | 106.38940 | 8543 ft | 278 kts | 47° |
| 2026-04-22 13:29 | 29.26782 | 106.40568 | 8251 ft | 276 kts | 46° |
| 2026-04-22 13:29 | 29.28080 | 106.42196 | 7961 ft | 275 kts | 46° |
| 2026-04-22 13:29 | 29.29350 | 106.43791 | 7678 ft | 273 kts | 46° |
| 2026-04-22 13:29 | 29.30621 | 106.45385 | 7393 ft | 272 kts | 46° |
| 2026-04-22 13:30 | 29.31902 | 106.46993 | 7105 ft | 271 kts | 46° |
| 2026-04-22 13:30 | 29.33154 | 106.48566 | 6824 ft | 269 kts | 46° |
| 2026-04-22 13:30 | 29.34417 | 106.50156 | 6543 ft | 268 kts | 46° |
| 2026-04-22 13:30 | 29.35666 | 106.51723 | 6403 ft | 259 kts | 46° |
| 2026-04-22 13:31 | 29.36866 | 106.53149 | 6391 ft | 244 kts | 40° |
| 2026-04-22 13:31 | 29.38136 | 106.54330 | 6405 ft | 226 kts | 35° |
| 2026-04-22 13:31 | 29.39422 | 106.55255 | 6296 ft | 209 kts | 25° |
| 2026-04-22 13:31 | 29.40725 | 106.55873 | 6026 ft | 200 kts | 17° |
| 2026-04-22 13:32 | 29.42029 | 106.56342 | 5786 ft | 198 kts | 14° |
| 2026-04-22 13:32 | 29.43357 | 106.56789 | 5558 ft | 198 kts | 14° |
| 2026-04-22 13:32 | 29.44666 | 106.57231 | 5345 ft | 196 kts | 15° |
| 2026-04-22 13:32 | 29.45974 | 106.57677 | 5155 ft | 195 kts | 15° |
| 2026-04-22 13:33 | 29.47266 | 106.58121 | 4962 ft | 195 kts | 15° |
| 2026-04-22 13:33 | 29.48570 | 106.58572 | 4941 ft | 195 kts | 15° |
| 2026-04-22 13:33 | 29.49851 | 106.59018 | 4939 ft | 194 kts | 15° |
| 2026-04-22 13:33 | 29.51154 | 106.59474 | 4937 ft | 194 kts | 15° |
| 2026-04-22 13:34 | 29.52435 | 106.59924 | 4932 ft | 194 kts | 15° |
| 2026-04-22 13:34 | 29.53732 | 106.60375 | 4935 ft | 194 kts | 15° |
| 2026-04-22 13:34 | 29.55016 | 106.60822 | 4822 ft | 194 kts | 15° |
| 2026-04-22 13:34 | 29.56308 | 106.61273 | 4571 ft | 193 kts | 15° |
| 2026-04-22 13:35 | 29.57574 | 106.61715 | 4317 ft | 186 kts | 14° |
| 2026-04-22 13:35 | 29.58762 | 106.62128 | 4064 ft | 173 kts | 14° |
| 2026-04-22 13:35 | 29.59898 | 106.62524 | 3840 ft | 169 kts | 15° |
| 2026-04-22 13:35 | 29.61011 | 106.62917 | 3632 ft | 168 kts | 15° |
| 2026-04-22 13:36 | 29.62122 | 106.63309 | 3419 ft | 168 kts | 15° |
| 2026-04-22 13:36 | 29.63238 | 106.63699 | 3196 ft | 162 kts | 15° |
| 2026-04-22 13:36 | 29.64285 | 106.64064 | 2980 ft | 158 kts | 14° |
| 2026-04-22 13:36 | 29.65341 | 106.64428 | 2773 ft | 158 kts | 14° |
| 2026-04-22 13:37 | 29.66389 | 106.64796 | 2559 ft | 157 kts | 15° |
| 2026-04-22 13:37 | 29.67431 | 106.65163 | 2351 ft | 156 kts | 15° |
| 2026-04-22 13:37 | 29.68472 | 106.65527 | 2139 ft | 156 kts | 15° |
| 2026-04-22 13:37 | 29.69516 | 106.65887 | 1922 ft | 155 kts | 14° |
| 2026-04-22 13:38 | 29.70536 | 106.66232 | 1729 ft | 154 kts | 16° |
| 2026-04-22 13:38 | 29.72546 | 106.66947 | 1380 ft | 136 kts | 15° |
| 2026-04-22 13:38 | 29.73274 | 106.67194 | 1379 ft | 83 kts | 16° |
| 2026-04-22 13:39 | 29.73666 | 106.67271 | 1379 ft | 31 kts | 352° |
| 2026-04-22 13:39 | 29.73816 | 106.67242 | 1379 ft | 17 kts | 351° |
| 2026-04-22 13:39 | 29.73896 | 106.67229 | 1379 ft | 9 kts | 352° |
| 2026-04-22 13:39 | 29.73942 | 106.67221 | 1379 ft | 4 kts | 352° |
| 2026-04-22 13:40 | 29.73962 | 106.67207 | 1379 ft | 0 kts | 303° |
| 2026-04-22 13:40 | 29.73962 | 106.67206 | 1379 ft | 0 kts | 304° |
| 2026-04-22 13:41 | 29.73963 | 106.67205 | 1379 ft | 0 kts | 304° |
| 2026-04-22 13:41 | 29.73974 | 106.67184 | 1379 ft | 5 kts | 300° |
| 2026-04-22 13:42 | 29.73995 | 106.67136 | 1379 ft | 8 kts | 292° |
| 2026-04-22 13:42 | 29.74016 | 106.67057 | 1379 ft | 11 kts | 286° |
| 2026-04-22 13:42 | 29.74040 | 106.66957 | 1379 ft | 14 kts | 286° |
| 2026-04-22 13:42 | 29.74065 | 106.66857 | 1379 ft | 13 kts | 287° |
| 2026-04-22 13:43 | 29.74071 | 106.66762 | 1379 ft | 10 kts | 227° |
| 2026-04-22 13:43 | 29.74002 | 106.66725 | 1379 ft | 12 kts | 199° |
| 2026-04-22 13:43 | 29.73912 | 106.66693 | 1379 ft | 14 kts | 196° |
| 2026-04-22 13:43 | 29.73809 | 106.66658 | 1379 ft | 16 kts | 196° |
| 2026-04-22 13:44 | 29.73695 | 106.66620 | 1379 ft | 17 kts | 197° |
| 2026-04-22 13:44 | 29.73574 | 106.66576 | 1379 ft | 18 kts | 198° |
| 2026-04-22 13:44 | 29.73446 | 106.66530 | 1379 ft | 20 kts | 197° |
| 2026-04-22 13:44 | 29.73309 | 106.66486 | 1379 ft | 21 kts | 195° |
| 2026-04-22 13:45 | 29.73166 | 106.66437 | 1379 ft | 22 kts | 198° |
| 2026-04-22 13:45 | 29.73013 | 106.66383 | 1379 ft | 23 kts | 196° |
| 2026-04-22 13:45 | 29.72855 | 106.66330 | 1379 ft | 24 kts | 198° |
| 2026-04-22 13:45 | 29.72691 | 106.66270 | 1379 ft | 25 kts | 197° |
| 2026-04-22 13:46 | 29.72516 | 106.66211 | 1379 ft | 26 kts | 197° |
| 2026-04-22 13:46 | 29.72334 | 106.66147 | 1379 ft | 27 kts | 197° |
| 2026-04-22 13:46 | 29.72146 | 106.66082 | 1379 ft | 28 kts | 197° |
| 2026-04-22 13:46 | 29.71951 | 106.66016 | 1379 ft | 30 kts | 197° |
| 2026-04-22 13:47 | 29.71752 | 106.65946 | 1379 ft | 24 kts | 197° |
| 2026-04-22 13:47 | 29.71624 | 106.65902 | 1379 ft | 16 kts | 197° |
| 2026-04-22 13:47 | 29.71518 | 106.65864 | 1379 ft | 16 kts | 197° |
| 2026-04-22 13:47 | 29.71408 | 106.65820 | 1379 ft | 17 kts | 204° |
| 2026-04-22 13:48 | 29.71317 | 106.65767 | 1379 ft | 13 kts | 208° |
| 2026-04-22 13:48 | 29.71252 | 106.65717 | 1379 ft | 8 kts | 215° |
| 2026-04-22 13:48 | 29.71244 | 106.65675 | 1379 ft | 7 kts | 281° |
| 2026-04-22 13:48 | 29.71266 | 106.65608 | 1379 ft | 10 kts | 294° |
| 2026-04-22 13:49 | 29.71290 | 106.65550 | 1379 ft | 6 kts | 297° |
| 2026-04-22 13:49 | 29.71302 | 106.65521 | 1379 ft | 0 kts | 295° |